Time;durP1;ratioP1;P1;durP2;ratioP2;P2;SDS_P1;SDS_P2;PMS_P1;PMS_P2;Temp;Humidity;BMP_temperature;BMP_pressure;BME280_temperature;BME280_humidity;BME280_pressure;Samples;Min_cycle;Max_cycle;Signal;HPM_P1;HPM_P2
2023/07/08 00:00:36;;;;;;;9.17;5.60;;;;;;;;;;6235543;28;20213;-70
2023/07/08 00:03:37;;;;;;;6.00;5.10;;;;;;;;;;6265422;28;20190;-70
2023/07/08 00:06:38;;;;;;;14.37;5.47;;;;;;;;;;6254429;28;20197;-72
2023/07/08 00:09:40;;;;;;;9.93;6.03;;;;;;;;;;6248803;28;20202;-70
2023/07/08 00:12:41;;;;;;;10.40;5.33;;;;;;;;;;6246667;28;20194;-70
2023/07/08 00:15:42;;;;;;;7.97;5.27;;;;;;;;;;6238759;28;20305;-70
2023/07/08 00:18:43;;;;;;;8.03;5.40;;;;;;;;;;6257757;28;20258;-70
2023/07/08 00:21:44;;;;;;;10.57;5.20;;;;;;;;;;6252285;28;20191;-70
2023/07/08 00:24:46;;;;;;;8.87;5.50;;;;;;;;;;6247302;28;20197;-71
2023/07/08 00:27:47;;;;;;;10.90;5.33;;;;;;;;;;6279353;28;20298;-71
2023/07/08 00:30:48;;;;;;;8.03;5.03;;;;;;;;;;6262314;28;20662;-71
2023/07/08 00:33:50;;;;;;;8.73;5.43;;;;;;;;;;6253387;28;20209;-71
2023/07/08 00:36:51;;;;;;;10.07;5.90;;;;;;;;;;6247569;28;20297;-70
2023/07/08 00:39:52;;;;;;;10.67;5.60;;;;;;;;;;6261327;28;20355;-71
2023/07/08 00:42:54;;;;;;;9.37;5.83;;;;;;;;;;6250322;28;20181;-71
2023/07/08 00:45:59;;;;;;;6.63;6.03;;;;;;;;;;6260568;28;20186;-70
2023/07/08 00:49:10;;;;;;;7.97;5.40;;;;;;;;;;6274110;28;20236;-71
2023/07/08 00:52:20;;;;;;;5.73;5.13;;;;;;;;;;6270691;28;20213;-70
2023/07/08 00:55:21;;;;;;;9.20;5.77;;;;;;;;;;6262283;28;20210;-72
2023/07/08 00:58:22;;;;;;;8.87;5.27;;;;;;;;;;6259209;28;20193;-71
2023/07/08 01:01:24;;;;;;;7.17;5.10;;;;;;;;;;6253692;28;20219;-70
2023/07/08 01:04:29;;;;;;;6.63;5.60;;;;;;;;;;6264549;28;20222;-70
2023/07/08 01:07:32;;;;;;;7.93;5.67;;;;;;;;;;6259545;28;20226;-70
2023/07/08 01:10:40;;;;;;;9.97;5.47;;;;;;;;;;6243635;28;20191;-70
2023/07/08 01:13:43;;;;;;;12.93;5.43;;;;;;;;;;6290015;28;20328;-70
2023/07/08 01:16:44;;;;;;;8.17;5.70;;;;;;;;;;6261675;28;20210;-70
2023/07/08 01:19:46;;;;;;;8.20;5.17;;;;;;;;;;6242554;28;20228;-70
2023/07/08 01:22:47;;;;;;;10.30;5.70;;;;;;;;;;6281233;28;20197;-70
2023/07/08 01:25:49;;;;;;;9.67;5.20;;;;;;;;;;6247383;28;20225;-71
2023/07/08 01:28:50;;;;;;;7.97;5.53;;;;;;;;;;6248941;28;20183;-70
2023/07/08 01:31:51;;;;;;;11.53;5.77;;;;;;;;;;6262549;28;20276;-72
2023/07/08 01:35:00;;;;;;;6.30;5.33;;;;;;;;;;6248044;28;20221;-70
2023/07/08 01:38:04;;;;;;;7.83;5.07;;;;;;;;;;6290382;28;20183;-71
2023/07/08 01:41:05;;;;;;;7.93;5.70;;;;;;;;;;6251579;28;20207;-71
2023/07/08 01:44:06;;;;;;;11.17;5.10;;;;;;;;;;6251001;28;20182;-71
2023/07/08 01:47:10;;;;;;;7.53;5.73;;;;;;;;;;6254271;28;20190;-72
2023/07/08 01:50:11;;;;;;;9.03;5.43;;;;;;;;;;6263406;28;20187;-71
2023/07/08 01:53:15;;;;;;;8.60;5.77;;;;;;;;;;6273245;28;20267;-71
2023/07/08 01:56:16;;;;;;;6.93;5.30;;;;;;;;;;6264210;28;20212;-70
2023/07/08 01:59:17;;;;;;;7.93;5.23;;;;;;;;;;6253483;28;20241;-71
2023/07/08 02:02:18;;;;;;;9.13;5.97;;;;;;;;;;6262128;28;20185;-71
2023/07/08 02:05:19;;;;;;;8.03;5.67;;;;;;;;;;6257415;28;20240;-71
2023/07/08 02:08:21;;;;;;;6.17;5.57;;;;;;;;;;6253432;28;20225;-70
2023/07/08 02:11:22;;;;;;;8.47;5.73;;;;;;;;;;6245324;28;20198;-70
2023/07/08 02:14:23;;;;;;;8.47;5.77;;;;;;;;;;6255433;28;20198;-70
2023/07/08 02:17:24;;;;;;;7.63;5.50;;;;;;;;;;6251371;28;20202;-71
2023/07/08 02:20:25;;;;;;;8.23;5.43;;;;;;;;;;6274772;28;20213;-71
2023/07/08 02:23:26;;;;;;;8.93;5.90;;;;;;;;;;6265569;28;20189;-70
2023/07/08 02:26:27;;;;;;;7.30;5.60;;;;;;;;;;6269159;28;20305;-70
2023/07/08 02:29:29;;;;;;;8.07;5.53;;;;;;;;;;6249785;28;20200;-71
2023/07/08 02:32:30;;;;;;;8.50;6.23;;;;;;;;;;6251225;28;20194;-70
2023/07/08 02:35:31;;;;;;;9.07;5.67;;;;;;;;;;6270738;28;20289;-71
2023/07/08 02:38:32;;;;;;;5.70;5.20;;;;;;;;;;6260876;28;20190;-71
2023/07/08 02:41:33;;;;;;;6.27;5.33;;;;;;;;;;6246188;28;20210;-72
2023/07/08 02:44:34;;;;;;;8.93;5.77;;;;;;;;;;6278484;28;20190;-71
2023/07/08 02:47:35;;;;;;;7.03;6.03;;;;;;;;;;6234756;28;20186;-71
2023/07/08 02:50:36;;;;;;;8.40;5.73;;;;;;;;;;6281137;28;20252;-71
2023/07/08 02:53:37;;;;;;;10.00;5.73;;;;;;;;;;6257464;28;20244;-71
2023/07/08 02:56:38;;;;;;;6.07;5.37;;;;;;;;;;6248513;28;20194;-71
2023/07/08 02:59:39;;;;;;;8.80;5.40;;;;;;;;;;6246168;28;20221;-70
2023/07/08 03:02:40;;;;;;;6.90;5.67;;;;;;;;;;6255016;28;20196;-71
2023/07/08 03:05:41;;;;;;;6.20;5.60;;;;;;;;;;6259888;28;20278;-71
2023/07/08 03:08:42;;;;;;;7.47;5.40;;;;;;;;;;6254843;28;20253;-70
2023/07/08 03:11:43;;;;;;;8.63;5.37;;;;;;;;;;6240737;28;20202;-71
2023/07/08 03:14:45;;;;;;;7.70;5.87;;;;;;;;;;6248153;28;20202;-71
2023/07/08 03:17:46;;;;;;;6.70;6.00;;;;;;;;;;6248148;28;20198;-70
2023/07/08 03:20:48;;;;;;;7.03;5.93;;;;;;;;;;6248676;28;20289;-70
2023/07/08 03:23:50;;;;;;;6.87;5.63;;;;;;;;;;6247216;28;20216;-71
2023/07/08 03:26:53;;;;;;;7.03;5.73;;;;;;;;;;6270852;28;20234;-71
2023/07/08 03:29:54;;;;;;;7.10;5.90;;;;;;;;;;6249467;28;20201;-71
2023/07/08 03:32:56;;;;;;;7.07;6.00;;;;;;;;;;6244594;28;20228;-71
2023/07/08 03:35:57;;;;;;;6.83;6.13;;;;;;;;;;6242572;28;20217;-71
2023/07/08 03:38:58;;;;;;;7.53;5.83;;;;;;;;;;6247547;28;20239;-70
2023/07/08 03:42:00;;;;;;;6.40;5.80;;;;;;;;;;6253899;28;20190;-70
2023/07/08 03:45:01;;;;;;;6.40;5.33;;;;;;;;;;6257582;28;20194;-71
2023/07/08 03:48:02;;;;;;;7.13;5.67;;;;;;;;;;6256815;28;20190;-70
2023/07/08 03:51:04;;;;;;;7.40;5.77;;;;;;;;;;6243698;28;20198;-70
2023/07/08 03:54:05;;;;;;;6.30;5.23;;;;;;;;;;6251075;28;20205;-70
2023/07/08 03:57:06;;;;;;;6.83;5.83;;;;;;;;;;6245601;28;20285;-71
2023/07/08 04:00:09;;;;;;;7.43;5.77;;;;;;;;;;6244830;28;20221;-71
2023/07/08 04:03:11;;;;;;;7.40;6.33;;;;;;;;;;6254866;28;20190;-72
2023/07/08 04:06:13;;;;;;;8.07;6.20;;;;;;;;;;6260597;28;20183;-71
2023/07/08 04:09:14;;;;;;;9.47;5.90;;;;;;;;;;6263099;28;20220;-70
2023/07/08 04:12:15;;;;;;;8.80;5.90;;;;;;;;;;6266230;28;20193;-70
2023/07/08 04:15:16;;;;;;;8.20;5.90;;;;;;;;;;6250371;28;20200;-70
2023/07/08 04:18:17;;;;;;;9.47;7.27;;;;;;;;;;6242618;28;20200;-70
2023/07/08 04:21:18;;;;;;;10.87;6.00;;;;;;;;;;6258100;28;20218;-71
2023/07/08 04:24:19;;;;;;;6.67;5.97;;;;;;;;;;6251134;28;20190;-71
2023/07/08 04:27:20;;;;;;;6.50;5.90;;;;;;;;;;6263747;28;20259;-72
2023/07/08 04:30:25;;;;;;;6.50;5.83;;;;;;;;;;6254877;28;20220;-70
2023/07/08 04:33:26;;;;;;;6.80;5.70;;;;;;;;;;6253999;28;20194;-72
2023/07/08 04:36:27;;;;;;;8.43;5.83;;;;;;;;;;6256115;28;20186;-67
2023/07/08 04:39:30;;;;;;;7.53;5.90;;;;;;;;;;6253323;28;20212;-68
2023/07/08 04:42:31;;;;;;;6.20;5.60;;;;;;;;;;6257231;28;20183;-74
2023/07/08 04:45:32;;;;;;;6.87;5.80;;;;;;;;;;6280245;28;20194;-74
2023/07/08 04:48:33;;;;;;;7.07;5.27;;;;;;;;;;6256579;28;20182;-71
2023/07/08 04:51:34;;;;;;;9.23;5.63;;;;;;;;;;6268496;28;20197;-70
2023/07/08 04:54:35;;;;;;;7.97;5.73;;;;;;;;;;6267993;28;20198;-71
2023/07/08 04:57:36;;;;;;;6.50;5.77;;;;;;;;;;6252929;28;20196;-72
2023/07/08 05:00:37;;;;;;;7.07;5.77;;;;;;;;;;6251590;28;20313;-71
2023/07/08 05:03:38;;;;;;;8.33;5.67;;;;;;;;;;6251385;28;20190;-72
2023/07/08 05:06:39;;;;;;;7.27;5.80;;;;;;;;;;6267972;28;20248;-69
2023/07/08 05:09:41;;;;;;;6.90;6.20;;;;;;;;;;6235693;28;20297;-69
2023/07/08 05:12:42;;;;;;;7.10;5.73;;;;;;;;;;6279944;28;20521;-69
2023/07/08 05:15:43;;;;;;;6.50;5.70;;;;;;;;;;6251299;28;20277;-72
2023/07/08 05:18:45;;;;;;;6.70;6.00;;;;;;;;;;6237476;28;20213;-72
2023/07/08 05:21:48;;;;;;;8.90;6.17;;;;;;;;;;6244240;28;20229;-72
2023/07/08 05:24:50;;;;;;;11.00;6.40;;;;;;;;;;6257758;28;20198;-73
2023/07/08 05:27:51;;;;;;;6.57;5.97;;;;;;;;;;6239556;28;20234;-73
2023/07/08 05:30:55;;;;;;;7.33;6.50;;;;;;;;;;6257126;28;20208;-72
2023/07/08 05:33:56;;;;;;;7.80;6.07;;;;;;;;;;6254304;28;20198;-73
2023/07/08 05:36:57;;;;;;;7.87;5.70;;;;;;;;;;6251446;28;20201;-73
2023/07/08 05:40:01;;;;;;;8.43;6.03;;;;;;;;;;6275157;28;20255;-73
2023/07/08 05:43:02;;;;;;;7.97;5.70;;;;;;;;;;6238982;28;20195;-74
2023/07/08 05:46:03;;;;;;;6.60;5.43;;;;;;;;;;6266372;28;20202;-71
2023/07/08 05:49:04;;;;;;;7.53;6.03;;;;;;;;;;6271375;28;20282;-73
2023/07/08 05:52:10;;;;;;;7.90;5.70;;;;;;;;;;6260055;28;20196;-73
2023/07/08 05:55:11;;;;;;;7.23;6.47;;;;;;;;;;6253627;28;20198;-72
2023/07/08 05:58:15;;;;;;;10.13;6.00;;;;;;;;;;6262629;28;20182;-73
2023/07/08 06:01:16;;;;;;;8.73;6.20;;;;;;;;;;6254955;28;20233;-72
2023/07/08 06:04:17;;;;;;;9.17;6.23;;;;;;;;;;6252509;28;20190;-73
2023/07/08 06:07:18;;;;;;;10.13;6.10;;;;;;;;;;6250876;28;20197;-73
2023/07/08 06:10:19;;;;;;;9.07;6.20;;;;;;;;;;6252430;28;20253;-72
2023/07/08 06:13:20;;;;;;;8.50;7.07;;;;;;;;;;6262004;28;20208;-71
2023/07/08 06:16:21;;;;;;;8.53;6.63;;;;;;;;;;6246901;28;20202;-72
2023/07/08 06:19:22;;;;;;;7.30;6.07;;;;;;;;;;6257131;28;20315;-70
2023/07/08 06:22:23;;;;;;;7.47;6.27;;;;;;;;;;6266306;28;20194;-70
2023/07/08 06:25:24;;;;;;;7.47;6.60;;;;;;;;;;6245058;28;20502;-70
2023/07/08 06:28:25;;;;;;;6.77;6.00;;;;;;;;;;6246948;28;20194;-70
2023/07/08 06:31:26;;;;;;;6.20;5.60;;;;;;;;;;6251224;28;20198;-72
2023/07/08 06:34:27;;;;;;;9.53;6.07;;;;;;;;;;6265823;28;20194;-72
2023/07/08 06:37:28;;;;;;;6.90;5.87;;;;;;;;;;6276397;28;20284;-72
2023/07/08 06:40:30;;;;;;;7.70;6.27;;;;;;;;;;6258163;28;20216;-71
2023/07/08 06:43:31;;;;;;;6.90;6.20;;;;;;;;;;6256892;28;20212;-72
2023/07/08 06:46:32;;;;;;;7.23;6.50;;;;;;;;;;6249409;28;20194;-71
2023/07/08 06:49:33;;;;;;;6.07;5.47;;;;;;;;;;6268385;28;20203;-71
2023/07/08 06:52:36;;;;;;;6.83;5.87;;;;;;;;;;6260996;28;20198;-70
2023/07/08 06:55:37;;;;;;;7.00;6.03;;;;;;;;;;6247818;28;20195;-71
2023/07/08 06:58:38;;;;;;;6.30;5.70;;;;;;;;;;6249346;28;20202;-72
2023/07/08 07:01:39;;;;;;;6.87;6.17;;;;;;;;;;6248435;28;20224;-71
2023/07/08 07:04:40;;;;;;;6.70;5.60;;;;;;;;;;6239966;28;20190;-71
2023/07/08 07:07:41;;;;;;;8.17;5.20;;;;;;;;;;6271568;28;20196;-71
2023/07/08 07:10:43;;;;;;;7.33;5.77;;;;;;;;;;6248698;28;20190;-70
2023/07/08 07:13:44;;;;;;;6.27;5.67;;;;;;;;;;6252194;28;20276;-71
2023/07/08 07:16:45;;;;;;;6.50;5.77;;;;;;;;;;6243807;28;20226;-71
2023/07/08 07:19:47;;;;;;;6.53;5.60;;;;;;;;;;6234177;28;20214;-71
2023/07/08 07:22:48;;;;;;;6.57;5.70;;;;;;;;;;6248754;28;20203;-70
2023/07/08 07:25:49;;;;;;;5.87;5.30;;;;;;;;;;6264474;28;20374;-70
2023/07/08 07:28:50;;;;;;;5.90;5.40;;;;;;;;;;6253533;28;20186;-70
2023/07/08 07:31:51;;;;;;;6.63;5.90;;;;;;;;;;6241719;28;20248;-70
2023/07/08 07:34:53;;;;;;;6.00;5.50;;;;;;;;;;6245929;28;20194;-70
2023/07/08 07:37:54;;;;;;;7.63;6.10;;;;;;;;;;6260793;28;20186;-70
2023/07/08 07:40:55;;;;;;;6.47;5.37;;;;;;;;;;6267028;28;20256;-69
2023/07/08 07:43:56;;;;;;;7.00;5.70;;;;;;;;;;6250243;28;20197;-70
2023/07/08 07:46:57;;;;;;;6.63;5.47;;;;;;;;;;6242797;28;20707;-69
2023/07/08 07:49:59;;;;;;;5.90;5.30;;;;;;;;;;6258705;28;20219;-68
2023/07/08 07:53:00;;;;;;;6.17;5.57;;;;;;;;;;6250705;28;20206;-69
2023/07/08 07:56:01;;;;;;;6.40;5.50;;;;;;;;;;6247239;28;20194;-69
2023/07/08 07:59:03;;;;;;;5.87;5.27;;;;;;;;;;6269545;28;20194;-68
2023/07/08 08:02:04;;;;;;;6.03;5.43;;;;;;;;;;6246326;28;20209;-69
2023/07/08 08:05:05;;;;;;;5.40;4.90;;;;;;;;;;6238155;28;20182;-69
2023/07/08 08:08:06;;;;;;;5.87;5.27;;;;;;;;;;6237185;28;20186;-68
2023/07/08 08:11:07;;;;;;;5.60;5.03;;;;;;;;;;6249675;28;20195;-69
2023/07/08 08:14:08;;;;;;;5.47;4.90;;;;;;;;;;6240195;28;20206;-72
2023/07/08 08:17:09;;;;;;;7.57;5.13;;;;;;;;;;6252394;28;20197;-71
2023/07/08 08:20:10;;;;;;;7.27;4.83;;;;;;;;;;6263763;28;20240;-73
2023/07/08 08:23:11;;;;;;;6.17;5.30;;;;;;;;;;6251907;28;20189;-70
2023/07/08 08:26:12;;;;;;;4.97;4.43;;;;;;;;;;6256768;28;20230;-73
2023/07/08 08:29:13;;;;;;;4.93;4.43;;;;;;;;;;6237412;28;20190;-73
2023/07/08 08:32:14;;;;;;;5.43;4.57;;;;;;;;;;6254765;28;20221;-71
2023/07/08 08:35:15;;;;;;;4.63;4.07;;;;;;;;;;6243259;28;20188;-69
2023/07/08 08:38:17;;;;;;;4.93;4.17;;;;;;;;;;6247566;28;20222;-70
2023/07/08 08:41:19;;;;;;;6.10;4.97;;;;;;;;;;6258764;28;20840;-69
2023/07/08 08:44:25;;;;;;;4.80;4.30;;;;;;;;;;6262768;28;20186;-69
2023/07/08 08:47:39;;;;;;;5.33;4.10;;;;;;;;;;6254849;28;20189;-69
2023/07/08 08:50:44;;;;;;;5.63;4.47;;;;;;;;;;6268257;28;20248;-68
2023/07/08 08:53:45;;;;;;;5.70;4.17;;;;;;;;;;6259825;28;20209;-67
2023/07/08 08:57:01;;;;;;;6.30;4.63;;;;;;;;;;6249184;28;20202;-68
2023/07/08 09:00:26;;;;;;;6.70;4.77;;;;;;;;;;6256584;28;20222;-73
2023/07/08 09:03:30;;;;;;;5.50;4.63;;;;;;;;;;6268231;28;20195;-64
2023/07/08 09:06:34;;;;;;;5.10;4.60;;;;;;;;;;6263232;28;20218;-65
2023/07/08 09:09:39;;;;;;;5.03;4.53;;;;;;;;;;6261389;28;20194;-66
2023/07/08 09:12:40;;;;;;;5.37;4.50;;;;;;;;;;6262130;28;20198;-66
2023/07/08 09:15:41;;;;;;;7.93;4.67;;;;;;;;;;6257027;28;20189;-66
2023/07/08 09:18:55;;;;;;;5.17;4.40;;;;;;;;;;6251908;28;20255;-66
2023/07/08 09:21:56;;;;;;;6.50;4.43;;;;;;;;;;6263361;28;20306;-67
2023/07/08 09:25:06;;;;;;;6.73;4.33;;;;;;;;;;6275118;28;20182;-67
2023/07/08 09:28:08;;;;;;;5.50;4.33;;;;;;;;;;6263398;28;20260;-67
2023/07/08 09:31:16;;;;;;;5.27;4.30;;;;;;;;;;6270913;28;20198;-67
2023/07/08 09:34:22;;;;;;;4.90;4.40;;;;;;;;;;6257047;28;20233;-66
2023/07/08 09:37:25;;;;;;;6.63;3.83;;;;;;;;;;6263303;28;20193;-66
2023/07/08 09:40:31;;;;;;;4.17;3.77;;;;;;;;;;6254131;28;20218;-66
2023/07/08 09:43:37;;;;;;;4.43;4.03;;;;;;;;;;6263866;28;20269;-66
2023/07/08 09:46:38;;;;;;;4.27;3.87;;;;;;;;;;6250549;28;20577;-66
2023/07/08 09:49:39;;;;;;;5.10;4.60;;;;;;;;;;6254884;28;20205;-66
2023/07/08 09:52:41;;;;;;;5.80;4.00;;;;;;;;;;6250144;28;20198;-66
2023/07/08 09:55:42;;;;;;;4.90;4.33;;;;;;;;;;6252017;28;20291;-67
2023/07/08 09:58:48;;;;;;;4.53;4.13;;;;;;;;;;6245990;28;20194;-67
2023/07/08 10:01:49;;;;;;;4.80;4.40;;;;;;;;;;6261278;28;20217;-67
2023/07/08 10:04:54;;;;;;;4.23;3.83;;;;;;;;;;6272000;28;20235;-66
2023/07/08 10:07:56;;;;;;;4.33;3.90;;;;;;;;;;6270768;28;20199;-67
2023/07/08 10:11:04;;;;;;;4.97;4.27;;;;;;;;;;6255277;28;20190;-67
2023/07/08 10:14:10;;;;;;;5.03;3.60;;;;;;;;;;6257990;28;20202;-67
2023/07/08 10:17:16;;;;;;;5.47;4.17;;;;;;;;;;6260750;28;20193;-67
2023/07/08 10:20:17;;;;;;;5.83;4.20;;;;;;;;;;6264053;28;20244;-66
2023/07/08 10:23:41;;;;;;;4.40;4.00;;;;;;;;;;6260569;28;20191;-67
2023/07/08 10:26:42;;;;;;;5.23;4.73;;;;;;;;;;6250139;28;20277;-67
2023/07/08 10:30:11;;;;;;;4.10;3.70;;;;;;;;;;6249289;28;20217;-67
2023/07/08 10:33:21;;;;;;;5.80;4.57;;;;;;;;;;6282501;28;20194;-67
2023/07/08 10:36:40;;;;;;;4.77;4.37;;;;;;;;;;6251805;28;20195;-66
2023/07/08 10:39:48;;;;;;;4.43;4.03;;;;;;;;;;6256048;28;20222;-67
2023/07/08 10:43:07;;;;;;;5.07;4.57;;;;;;;;;;6257958;28;20207;-67
2023/07/08 10:46:26;;;;;;;5.57;4.37;;;;;;;;;;6248163;28;20183;-67
2023/07/08 10:49:33;;;;;;;6.77;4.47;;;;;;;;;;6262403;28;20191;-67
2023/07/08 10:52:43;;;;;;;6.13;5.00;;;;;;;;;;6269695;28;20193;-68
2023/07/08 10:55:44;;;;;;;5.07;4.57;;;;;;;;;;6249557;28;20190;-67
2023/07/08 10:59:04;;;;;;;5.03;4.57;;;;;;;;;;6260852;28;20187;-66
2023/07/08 11:02:17;;;;;;;4.77;4.37;;;;;;;;;;6257058;28;20228;-69
2023/07/08 11:05:23;;;;;;;4.83;4.37;;;;;;;;;;6255255;28;20183;-68
2023/07/08 11:08:28;;;;;;;6.87;4.83;;;;;;;;;;6259342;28;20187;-67
2023/07/08 11:11:52;;;;;;;5.43;4.53;;;;;;;;;;6256113;28;20202;-71
2023/07/08 11:15:07;;;;;;;7.10;4.90;;;;;;;;;;6263104;28;20255;-67
2023/07/08 11:18:13;;;;;;;5.17;4.67;;;;;;;;;;6249958;28;20709;-67
2023/07/08 11:21:23;;;;;;;5.50;4.80;;;;;;;;;;6251201;28;20264;-67
2023/07/08 11:24:35;;;;;;;6.03;4.83;;;;;;;;;;6256750;28;20210;-67
2023/07/08 11:27:41;;;;;;;5.83;4.47;;;;;;;;;;6261536;28;20321;-67
2023/07/08 11:30:42;;;;;;;5.33;4.80;;;;;;;;;;6252604;28;20183;-66
2023/07/08 11:33:44;;;;;;;6.23;4.67;;;;;;;;;;6248748;28;20182;-67
2023/07/08 11:36:46;;;;;;;4.93;4.43;;;;;;;;;;6272395;28;20185;-68
2023/07/08 11:39:53;;;;;;;8.83;4.73;;;;;;;;;;6259343;28;20273;-68
2023/07/08 11:43:06;;;;;;;5.60;4.80;;;;;;;;;;6254137;28;20179;-68
2023/07/08 11:46:07;;;;;;;5.33;4.83;;;;;;;;;;6253180;28;20174;-68
2023/07/08 11:49:13;;;;;;;5.53;5.03;;;;;;;;;;6259278;28;20181;-68
2023/07/08 11:52:17;;;;;;;7.33;5.60;;;;;;;;;;6263215;28;20193;-68
2023/07/08 11:55:24;;;;;;;6.63;4.57;;;;;;;;;;6253051;28;20179;-68
2023/07/08 11:58:26;;;;;;;5.37;4.83;;;;;;;;;;6262346;28;20213;-68
2023/07/08 12:01:29;;;;;;;5.50;4.87;;;;;;;;;;6253175;28;20209;-69
2023/07/08 12:04:32;;;;;;;5.43;4.60;;;;;;;;;;6252341;28;20208;-70
2023/07/08 12:07:37;;;;;;;5.10;4.60;;;;;;;;;;6256911;28;20214;-71
2023/07/08 12:10:39;;;;;;;6.77;4.90;;;;;;;;;;6264962;28;20190;-68
2023/07/08 12:13:41;;;;;;;7.67;4.70;;;;;;;;;;6263740;28;20288;-68
2023/07/08 12:16:42;;;;;;;5.50;4.80;;;;;;;;;;6270130;28;20185;-68
2023/07/08 12:19:45;;;;;;;5.53;4.77;;;;;;;;;;6247225;28;20261;-69
2023/07/08 12:22:46;;;;;;;6.23;4.57;;;;;;;;;;6271415;28;20193;-71
2023/07/08 12:25:47;;;;;;;6.20;4.90;;;;;;;;;;6245168;28;20226;-72
2023/07/08 12:28:48;;;;;;;5.43;4.60;;;;;;;;;;6248185;28;20209;-72
2023/07/08 12:31:49;;;;;;;5.87;5.27;;;;;;;;;;6255429;28;20178;-69
2023/07/08 12:34:51;;;;;;;4.97;4.47;;;;;;;;;;6252252;28;20278;-68
2023/07/08 12:38:00;;;;;;;4.93;4.43;;;;;;;;;;6250478;28;20204;-72
2023/07/08 12:41:06;;;;;;;5.23;4.37;;;;;;;;;;6265975;28;20218;-70
2023/07/08 12:44:18;;;;;;;6.63;5.17;;;;;;;;;;6254547;28;20210;-69
2023/07/08 12:47:21;;;;;;;7.20;5.30;;;;;;;;;;6252947;28;20190;-70
2023/07/08 12:50:22;;;;;;;6.27;5.67;;;;;;;;;;6267607;28;20212;-68
2023/07/08 12:53:23;;;;;;;8.43;4.90;;;;;;;;;;6255178;28;20248;-70
2023/07/08 12:56:24;;;;;;;6.57;5.17;;;;;;;;;;6253028;28;20186;-68
2023/07/08 12:59:25;;;;;;;5.13;4.63;;;;;;;;;;6255104;28;20186;-71
2023/07/08 13:02:28;;;;;;;5.70;5.10;;;;;;;;;;6247545;28;20182;-68
2023/07/08 13:05:29;;;;;;;8.00;5.27;;;;;;;;;;6266305;28;20188;-70
2023/07/08 13:08:35;;;;;;;8.97;4.77;;;;;;;;;;6265872;28;20363;-69
2023/07/08 13:11:37;;;;;;;5.17;4.50;;;;;;;;;;6265732;28;20202;-72
2023/07/08 13:14:43;;;;;;;5.37;4.87;;;;;;;;;;6273974;28;20204;-72
2023/07/08 13:17:44;;;;;;;5.07;4.67;;;;;;;;;;6251123;28;20217;-69
2023/07/08 13:20:55;;;;;;;5.40;4.90;;;;;;;;;;6251956;28;20186;-69
2023/07/08 13:23:56;;;;;;;4.93;4.43;;;;;;;;;;6244380;28;21269;-69
2023/07/08 13:26:57;;;;;;;5.63;4.70;;;;;;;;;;6245002;28;20241;-70
2023/07/08 13:30:08;;;;;;;6.53;4.83;;;;;;;;;;6249423;28;20816;-68
2023/07/08 13:33:17;;;;;;;6.20;5.33;;;;;;;;;;6263931;28;20809;-68
2023/07/08 13:36:19;;;;;;;6.60;4.57;;;;;;;;;;6263738;28;20213;-69
2023/07/08 13:39:32;;;;;;;5.33;4.80;;;;;;;;;;6251568;28;20254;-69
2023/07/08 13:42:33;;;;;;;6.33;4.73;;;;;;;;;;6256795;28;20174;-70
2023/07/08 13:45:36;;;;;;;4.63;4.23;;;;;;;;;;6256897;28;20209;-69
2023/07/08 13:48:43;;;;;;;5.40;4.90;;;;;;;;;;6267389;28;20178;-69
2023/07/08 13:51:45;;;;;;;5.63;4.83;;;;;;;;;;6271236;28;20225;-70
2023/07/08 13:54:53;;;;;;;7.57;4.53;;;;;;;;;;6239136;28;20194;-73
2023/07/08 13:58:01;;;;;;;6.97;4.87;;;;;;;;;;6268116;28;20178;-72
2023/07/08 14:01:02;;;;;;;6.60;4.93;;;;;;;;;;6258267;28;20201;-70
2023/07/08 14:04:03;;;;;;;6.40;4.53;;;;;;;;;;6246980;28;20190;-70
2023/07/08 14:07:05;;;;;;;4.90;4.37;;;;;;;;;;6264971;28;20195;-70
2023/07/08 14:10:13;;;;;;;6.47;5.03;;;;;;;;;;6259228;28;20213;-71
2023/07/08 14:13:15;;;;;;;7.23;4.67;;;;;;;;;;6271319;28;20178;-68
2023/07/08 14:16:28;;;;;;;5.50;5.00;;;;;;;;;;6245136;28;20437;-70
2023/07/08 14:19:31;;;;;;;4.77;4.33;;;;;;;;;;6253940;28;20251;-69
2023/07/08 14:22:32;;;;;;;5.37;4.73;;;;;;;;;;6266636;28;20192;-75
2023/07/08 14:25:33;;;;;;;5.60;4.83;;;;;;;;;;6252526;28;20231;-70
2023/07/08 14:28:34;;;;;;;5.40;4.90;;;;;;;;;;6254219;28;20186;-71
2023/07/08 14:31:35;;;;;;;5.37;4.87;;;;;;;;;;6246553;28;20230;-68
2023/07/08 14:34:36;;;;;;;7.57;4.70;;;;;;;;;;6265884;28;20194;-67
2023/07/08 14:37:37;;;;;;;5.53;5.03;;;;;;;;;;6246504;28;20182;-68
2023/07/08 14:40:40;;;;;;;5.17;4.77;;;32.50;40.80;;;;;;6257476;28;20188;-67
2023/07/08 14:43:43;;;;;;;5.60;5.00;;;32.40;41.10;;;;;;6285291;28;20195;-67
2023/07/08 14:46:44;;;;;;;5.30;4.80;;;32.20;44.00;;;;;;6240860;28;20255;-67
2023/07/08 14:49:45;;;;;;;4.80;4.40;;;32.20;45.40;;;;;;6262097;28;20222;-66
2023/07/08 14:52:46;;;;;;;6.87;5.17;;;;;;;;;;6264161;28;20189;-68
2023/07/08 14:55:55;;;;;;;5.70;5.10;;;;;;;;;;6252501;28;20189;-67
2023/07/08 14:58:56;;;;;;;5.40;4.90;;;;;;;;;;6259850;28;20182;-66
2023/07/08 15:01:58;;;;;;;5.17;4.47;;;;;;;;;;6249493;28;20228;-66
2023/07/08 15:04:59;;;;;;;6.93;4.60;;;;;;;;;;6265769;28;20316;-68
2023/07/08 15:08:00;;;;;;;5.57;4.97;;;;;;;;;;6241907;28;20198;-67
2023/07/08 15:11:01;;;;;;;5.90;4.73;;;;;;;;;;6256655;28;20213;-67
2023/07/08 15:14:03;;;;;;;5.10;4.60;;;;;;;;;;6258800;28;20195;-66
2023/07/08 15:17:09;;;;;;;5.67;4.67;;;;;;;;;;6252182;28;20201;-67
2023/07/08 15:20:14;;;;;;;6.40;5.40;;;;;;;;;;6252746;28;20273;-66
2023/07/08 15:23:19;;;;;;;6.13;4.67;;;;;;;;;;6258970;28;20201;-69
2023/07/08 15:26:20;;;;;;;5.13;4.63;;;;;;;;;;6248780;28;20254;-68
2023/07/08 15:29:22;;;;;;;5.97;5.07;;;;;;;;;;6267647;28;20190;-67
2023/07/08 15:32:23;;;;;;;5.47;4.83;;;;;;;;;;6265668;28;20198;-69
2023/07/08 15:35:30;;;;;;;4.83;4.43;;;;;;;;;;6246786;28;20232;-72
2023/07/08 15:38:31;;;;;;;5.77;5.17;;;;;;;;;;6257006;28;20179;-71
2023/07/08 15:41:33;;;;;;;5.23;4.73;;;;;;;;;;6245895;28;20189;-71
2023/07/08 15:44:34;;;;;;;5.83;4.83;;;;;;;;;;6252276;28;20214;-69
2023/07/08 15:47:35;;;;;;;6.00;5.37;;;;;;;;;;6247886;28;20190;-70
2023/07/08 15:50:36;;;;;;;5.30;4.80;;;;;;;;;;6268972;28;20263;-69
2023/07/08 15:53:37;;;;;;;6.20;5.10;;;;;;;;;;6251026;28;20208;-69
2023/07/08 15:56:38;;;;;;;6.77;5.20;;;;;;;;;;6271384;28;20186;-68
2023/07/08 15:59:41;;;;;;;5.40;4.90;;;;;;;;;;6261181;28;20279;-69
2023/07/08 16:02:42;;;;;;;6.23;5.33;;;;;;;;;;6260662;28;20246;-69
2023/07/08 16:05:43;;;;;;;6.03;5.20;;;;;;;;;;6258249;28;20189;-69
2023/07/08 16:08:45;;;;;;;5.97;4.93;;;;;;;;;;6253059;28;20217;-69
2023/07/08 16:11:46;;;;;;;6.13;5.33;;;;;;;;;;6258301;28;20218;-68
2023/07/08 16:14:47;;;;;;;7.27;4.53;;;;;;;;;;6256116;28;20210;-68
2023/07/08 16:17:48;;;;;;;5.70;5.13;;;;;;;;;;6262239;28;20213;-67
2023/07/08 16:20:49;;;;;;;6.40;5.17;;;;;;;;;;6253818;28;20222;-66
2023/07/08 16:23:50;;;;;;;5.23;4.73;;;;;;;;;;6266821;28;20187;-67
2023/07/08 16:26:51;;;;;;;5.67;5.07;;;;;;;;;;6258570;28;20239;-67
2023/07/08 16:29:53;;;;;;;6.03;4.63;;;;;;;;;;6251890;28;20214;-67
2023/07/08 16:32:54;;;;;;;8.17;4.83;;;;;;;;;;6260112;28;20197;-67
2023/07/08 16:35:55;;;;;;;5.67;5.10;;;;;;;;;;6252683;28;20198;-67
2023/07/08 16:38:56;;;;;;;5.83;5.23;;;;;;;;;;6255917;28;20218;-68
2023/07/08 16:41:57;;;;;;;5.07;4.43;;;;;;;;;;6258084;28;20281;-68
2023/07/08 16:44:58;;;;;;;6.53;4.53;;;;;;;;;;6252739;28;20187;-67
2023/07/08 16:47:59;;;;;;;5.73;4.87;;;;;;;;;;6271373;28;20186;-67
2023/07/08 16:51:00;;;;;;;4.93;4.43;;;;;;;;;;6248313;28;20205;-68
2023/07/08 16:54:12;;;;;;;6.07;4.73;;;;;;;;;;6253724;28;20239;-69
2023/07/08 16:57:14;;;;;;;7.47;4.73;;;;;;;;;;6268287;28;20206;-69
2023/07/08 17:00:20;;;;;;;5.67;5.10;;;;;;;;;;6248774;28;20187;-69
2023/07/08 17:03:21;;;;;;;6.00;4.80;;;;;;;;;;6250462;28;20198;-70
2023/07/08 17:06:22;;;;;;;4.80;4.40;;;;;;;;;;6267454;28;20194;-70
2023/07/08 17:09:24;;;;;;;5.70;5.13;;;;;;;;;;6253594;28;20194;-70
2023/07/08 17:12:25;;;;;;;5.33;4.83;;;;;;;;;;6253969;28;20205;-69
2023/07/08 17:15:27;;;;;;;5.43;5.00;;;;;;;;;;6254953;28;20237;-68
2023/07/08 17:18:28;;;;;;;5.23;4.73;;;;;;;;;;6273226;28;20181;-67
2023/07/08 17:21:30;;;;;;;5.77;4.90;;;;;;;;;;6251985;28;20193;-67
2023/07/08 17:24:31;;;;;;;4.73;4.33;;;;;;;;;;6248698;28;20273;-67
2023/07/08 17:27:32;;;;;;;5.10;4.67;;;;;;;;;;6247728;28;20288;-66
2023/07/08 17:30:33;;;;;;;7.17;4.37;;;;;;;;;;6246977;28;20225;-66
2023/07/08 17:33:34;;;;;;;6.10;4.57;;;;;;;;;;6263144;28;20182;-67
2023/07/08 17:36:36;;;;;;;5.13;4.27;;;;;;;;;;6243214;28;20193;-67
2023/07/08 17:39:37;;;;;;;5.33;4.83;;;;;;;;;;6257739;28;20191;-67
2023/07/08 17:42:38;;;;;;;4.53;4.13;;;;;;;;;;6240859;28;20201;-68
2023/07/08 17:45:41;;;;;;;6.57;4.50;;;;;;;;;;6262984;28;20205;-70
2023/07/08 17:48:46;;;;;;;5.30;4.63;;;;;;;;;;6256046;28;20252;-68
2023/07/08 17:51:47;;;;;;;5.50;5.00;;;;;;;;;;6257244;28;20210;-69
2023/07/08 17:54:48;;;;;;;6.20;4.80;;;;;;;;;;6258229;28;20250;-68
2023/07/08 17:57:50;;;;;;;4.60;4.20;;;;;;;;;;6246379;28;20183;-68
2023/07/08 18:00:51;;;;;;;6.00;4.27;;;;;;;;;;6247712;28;20209;-68
2023/07/08 18:03:52;;;;;;;7.97;5.43;;;;;;;;;;6248129;28;20289;-69
2023/07/08 18:06:54;;;;;;;7.17;4.97;;;;;;;;;;6257772;28;20189;-69
2023/07/08 18:09:55;;;;;;;4.77;4.30;;;;;;;;;;6283103;28;20209;-68
2023/07/08 18:12:56;;;;;;;8.43;5.07;;;;;;;;;;6269639;28;20226;-68